Time;durP1;ratioP1;P1;durP2;ratioP2;P2;SDS_P1;SDS_P2;PMS_P1;PMS_P2;Temp;Humidity;BMP_temperature;BMP_pressure;BME280_temperature;BME280_humidity;BME280_pressure;Samples;Min_cycle;Max_cycle;Signal;HPM_P1;HPM_P2
2022/03/09 00:02:10;;;;;;;13.30;10.20;;;3.60;58.10;;;;;;5075146;28;20397;-56
2022/03/09 00:04:35;;;;;;;13.23;9.07;;;3.60;58.10;;;;;;5074811;28;20419;-56
2022/03/09 00:07:01;;;;;;;14.00;8.90;;;3.60;58.10;;;;;;5074560;28;20178;-55
2022/03/09 00:09:26;;;;;;;13.60;9.80;;;3.50;58.80;;;;;;5074869;28;20185;-58
2022/03/09 00:11:52;;;;;;;11.80;9.27;;;3.40;59.20;;;;;;5074823;28;20167;-56
2022/03/09 00:14:17;;;;;;;11.73;9.37;;;3.20;59.90;;;;;;5074758;28;20193;-57
2022/03/09 00:16:43;;;;;;;11.57;8.93;;;3.00;60.30;;;;;;5074404;28;20197;-54
2022/03/09 00:19:09;;;;;;;12.73;8.90;;;3.00;60.40;;;;;;5074482;28;20198;-57
2022/03/09 00:21:34;;;;;;;10.97;8.87;;;3.00;60.30;;;;;;5074629;28;20175;-57
2022/03/09 00:24:00;;;;;;;10.97;8.13;;;3.00;60.70;;;;;;5073273;28;20417;-58
2022/03/09 00:26:25;;;;;;;10.53;8.43;;;3.00;60.80;;;;;;5074252;28;20197;-58
2022/03/09 00:28:51;;;;;;;11.40;8.53;;;3.00;60.80;;;;;;5073534;28;20174;-58
2022/03/09 00:31:17;;;;;;;10.73;8.67;;;3.00;60.90;;;;;;5074491;28;20185;-57
2022/03/09 00:33:42;;;;;;;10.60;8.90;;;3.00;60.80;;;;;;5074359;28;20179;-56
2022/03/09 00:36:08;;;;;;;10.90;8.60;;;3.00;61.00;;;;;;5074194;28;20194;-54
2022/03/09 00:38:33;;;;;;;10.07;8.00;;;3.00;61.10;;;;;;5074177;28;20178;-58
2022/03/09 00:41:01;;;;;;;9.83;8.20;;;2.90;61.00;;;;;;5074708;28;20185;-56
2022/03/09 00:43:27;;;;;;;11.20;7.90;;;2.90;60.90;;;;;;5074554;28;20352;-57
2022/03/09 00:45:53;;;;;;;9.73;7.90;;;2.90;60.90;;;;;;5074140;28;20424;-58
2022/03/09 00:48:19;;;;;;;11.40;8.00;;;2.80;61.30;;;;;;5074391;28;20415;-58
2022/03/09 00:50:45;;;;;;;10.93;8.67;;;2.80;61.40;;;;;;5074291;28;20908;-57
2022/03/09 00:53:10;;;;;;;9.60;7.87;;;2.70;61.30;;;;;;5074242;28;20593;-55
2022/03/09 00:55:36;;;;;;;10.23;7.40;;;2.70;61.00;;;;;;5072727;28;20255;-54
2022/03/09 00:58:01;;;;;;;9.60;7.60;;;2.70;61.20;;;;;;5073986;28;20205;-54
2022/03/09 01:00:27;;;;;;;9.23;7.80;;;2.70;61.70;;;;;;5073916;28;20627;-54
2022/03/09 01:02:52;;;;;;;10.03;7.73;;;2.70;61.50;;;;;;5074023;28;20643;-55
2022/03/09 01:05:18;;;;;;;9.27;8.20;;;2.70;61.60;;;;;;5073681;28;20678;-58
2022/03/09 01:07:44;;;;;;;9.60;7.47;;;2.70;61.70;;;;;;5073484;28;20171;-57
2022/03/09 01:10:10;;;;;;;9.17;7.60;;;2.70;61.80;;;;;;5073791;28;20198;-57
2022/03/09 01:12:36;;;;;;;8.63;7.30;;;2.70;61.80;;;;;;5073724;28;20177;-58
2022/03/09 01:15:03;;;;;;;10.70;7.50;;;2.60;61.60;;;;;;5073492;28;20794;-55
2022/03/09 01:17:29;;;;;;;11.57;7.40;;;2.60;61.70;;;;;;5073206;28;20420;-56
2022/03/09 01:19:54;;;;;;;9.73;7.40;;;2.60;61.80;;;;;;5073428;28;20453;-53
2022/03/09 01:22:20;;;;;;;8.60;7.33;;;3.70;63.30;;;;;;5073532;28;20167;-54
2022/03/09 01:24:46;;;;;;;10.40;7.90;;;2.50;63.10;;;;;;5073417;28;20187;-54
2022/03/09 01:27:11;;;;;;;10.27;8.17;;;2.40;63.20;;;;;;5073255;28;20240;-57
2022/03/09 01:29:37;;;;;;;9.87;7.80;;;2.40;63.10;;;;;;5073351;28;20182;-57
2022/03/09 01:32:03;;;;;;;9.13;6.97;;;2.30;63.90;;;;;;5073361;28;20614;-58
2022/03/09 01:34:29;;;;;;;9.00;7.00;;;2.40;63.10;;;;;;5073166;28;20555;-58
2022/03/09 01:36:54;;;;;;;8.97;7.03;;;2.30;62.80;;;;;;5072970;28;20462;-58
2022/03/09 01:39:20;;;;;;;8.37;6.80;;;2.40;62.80;;;;;;5073144;28;20194;-58
2022/03/09 01:41:46;;;;;;;8.77;6.80;;;2.40;62.90;;;;;;5073069;28;20175;-57
2022/03/09 01:44:11;;;;;;;9.10;7.27;;;2.30;63.10;;;;;;5073081;28;20262;-58
2022/03/09 01:46:38;;;;;;;10.57;7.67;;;2.30;63.00;;;;;;5072825;28;20460;-54
2022/03/09 01:49:05;;;;;;;9.80;6.83;;;2.30;63.00;;;;;;5072874;28;20166;-55
2022/03/09 01:51:32;;;;;;;8.00;7.07;;;2.30;63.00;;;;;;5072920;28;20499;-54
2022/03/09 01:53:58;;;;;;;9.93;6.70;;;2.30;63.00;;;;;;5072900;28;20917;-57
2022/03/09 01:56:24;;;;;;;8.90;7.20;;;2.30;63.00;;;;;;5072511;28;20429;-55
2022/03/09 01:58:50;;;;;;;8.97;6.73;;;2.30;63.00;;;;;;5066313;28;20662;-58
2022/03/09 02:01:15;;;;;;;10.67;7.07;;;2.20;63.10;;;;;;5070246;28;20655;-58
2022/03/09 02:03:41;;;;;;;9.30;7.00;;;2.30;63.20;;;;;;5072530;28;20253;-57
2022/03/09 02:06:06;;;;;;;10.20;7.07;;;2.20;63.40;;;;;;5072175;28;20218;-57
2022/03/09 02:11:17;;;;;;;8.57;6.60;;;2.20;63.40;;;;;;5072881;28;20319;-54
2022/03/09 02:13:42;;;;;;;8.37;6.87;;;2.20;63.20;;;;;;5065451;28;20422;-57
2022/03/09 02:16:08;;;;;;;8.87;7.00;;;2.30;63.20;;;;;;5068452;28;20453;-57
2022/03/09 02:18:33;;;;;;;9.97;6.80;;;2.30;63.10;;;;;;5072250;28;20178;-55
2022/03/09 02:21:02;;;;;;;8.97;6.60;;;2.20;63.10;;;;;;5072438;28;20179;-58
2022/03/09 02:23:28;;;;;;;8.43;6.73;;;2.30;63.10;;;;;;5072332;28;20170;-58
2022/03/09 02:25:54;;;;;;;8.60;6.70;;;2.30;63.00;;;;;;5072031;28;20428;-57
2022/03/09 02:28:19;;;;;;;8.20;7.03;;;2.20;62.70;;;;;;5072185;28;20463;-58
2022/03/09 02:30:45;;;;;;;8.20;5.97;;;2.20;62.60;;;;;;5072300;28;20174;-57
2022/03/09 02:33:10;;;;;;;7.50;6.30;;;2.20;62.90;;;;;;5072240;28;20178;-56
2022/03/09 02:35:36;;;;;;;9.77;6.70;;;2.20;62.70;;;;;;5071819;28;20252;-57
2022/03/09 02:38:02;;;;;;;12.20;7.13;;;2.30;62.90;;;;;;5072169;28;20206;-57
2022/03/09 02:40:27;;;;;;;7.43;6.47;;;2.30;62.90;;;;;;5072062;28;20241;-57
2022/03/09 02:42:53;;;;;;;8.30;6.83;;;2.30;62.80;;;;;;5072078;28;20171;-57
2022/03/09 02:45:18;;;;;;;7.50;6.57;;;2.20;63.10;;;;;;5071955;28;20190;-56
2022/03/09 02:47:45;;;;;;;7.97;6.30;;;2.20;63.40;;;;;;5071750;28;20197;-57
2022/03/09 02:50:15;;;;;;;8.97;6.87;;;2.20;63.30;;;;;;5072054;28;20182;-57
2022/03/09 02:52:42;;;;;;;7.73;5.77;;;2.20;63.30;;;;;;5072084;28;20409;-54
2022/03/09 02:55:09;;;;;;;7.23;6.10;;;2.20;63.60;;;;;;5071902;28;20428;-58
2022/03/09 02:57:35;;;;;;;8.50;6.60;;;2.20;63.80;;;;;;5071579;28;20412;-57
2022/03/09 03:00:02;;;;;;;9.70;6.93;;;2.10;63.70;;;;;;5071763;28;20452;-57
2022/03/09 03:02:27;;;;;;;8.37;5.97;;;2.10;63.80;;;;;;5071876;28;20189;-57
2022/03/09 03:04:53;;;;;;;8.47;6.40;;;2.10;63.90;;;;;;5071734;28;20433;-56
2022/03/09 03:07:18;;;;;;;8.30;6.20;;;2.10;63.90;;;;;;5071526;28;20198;-58
2022/03/09 03:09:44;;;;;;;8.10;6.77;;;2.10;63.90;;;;;;5071813;28;20205;-58
2022/03/09 03:12:09;;;;;;;7.93;6.90;;;2.10;64.20;;;;;;5071783;28;20182;-56
2022/03/09 03:14:35;;;;;;;7.67;5.93;;;2.10;64.20;;;;;;5071535;28;20186;-58
2022/03/09 03:17:00;;;;;;;10.00;6.07;;;2.00;64.20;;;;;;5071397;28;20179;-57
2022/03/09 03:19:26;;;;;;;8.53;6.60;;;2.00;63.90;;;;;;5071525;28;20547;-55
2022/03/09 03:21:51;;;;;;;9.00;6.80;;;2.00;64.30;;;;;;5071712;28;20534;-56
2022/03/09 03:24:18;;;;;;;7.73;6.43;;;2.00;64.60;;;;;;5071681;28;20167;-57
2022/03/09 03:26:43;;;;;;;8.13;6.63;;;2.00;64.30;;;;;;5071242;28;20240;-57
2022/03/09 03:29:09;;;;;;;7.80;6.03;;;2.00;64.50;;;;;;5071505;28;20416;-55
2022/03/09 03:31:34;;;;;;;8.00;6.07;;;2.00;64.60;;;;;;5071568;28;20261;-58
2022/03/09 03:34:00;;;;;;;7.97;6.40;;;2.00;64.80;;;;;;5071500;28;20174;-57
2022/03/09 03:36:25;;;;;;;10.57;6.27;;;1.90;64.90;;;;;;5071230;28;20239;-56
2022/03/09 03:38:51;;;;;;;8.33;6.23;;;1.90;65.00;;;;;;5069983;28;20263;-55
2022/03/09 03:41:17;;;;;;;9.03;6.23;;;1.90;65.10;;;;;;5071515;28;20174;-57
2022/03/09 03:43:42;;;;;;;8.87;6.50;;;1.90;65.10;;;;;;5071717;28;20198;-56
2022/03/09 03:46:08;;;;;;;8.67;6.43;;;1.80;65.30;;;;;;5071687;28;20203;-57
2022/03/09 03:48:33;;;;;;;8.70;6.47;;;1.80;65.70;;;;;;5071642;28;20185;-56
2022/03/09 03:50:59;;;;;;;9.63;6.90;;;1.80;65.70;;;;;;5071576;28;20269;-58
2022/03/09 03:53:24;;;;;;;9.47;7.03;;;1.80;66.00;;;;;;5071444;28;20327;-58
2022/03/09 03:55:50;;;;;;;8.40;6.50;;;1.70;66.20;;;;;;5071068;28;20194;-57
2022/03/09 03:58:15;;;;;;;7.93;6.53;;;1.80;66.20;;;;;;5071326;28;20642;-57
2022/03/09 04:00:41;;;;;;;10.40;6.73;;;1.80;66.30;;;;;;5071364;28;20194;-58
2022/03/09 04:03:06;;;;;;;9.37;6.33;;;1.80;66.20;;;;;;5071436;28;20175;-57
2022/03/09 04:05:32;;;;;;;7.67;5.70;;;1.70;65.90;;;;;;5074118;28;20227;-54
2022/03/09 04:07:57;;;;;;;8.73;5.83;;;1.70;66.00;;;;;;5074882;28;20247;-54
2022/03/09 04:10:23;;;;;;;8.20;6.37;;;1.70;65.80;;;;;;5074975;28;20175;-54
2022/03/09 04:12:49;;;;;;;7.90;6.00;;;1.60;66.10;;;;;;5074850;28;20182;-58
2022/03/09 04:15:14;;;;;;;8.50;6.10;;;1.60;66.30;;;;;;5074577;28;20595;-57
2022/03/09 04:17:41;;;;;;;9.17;6.60;;;1.60;66.00;;;;;;5074520;28;20544;-58
2022/03/09 04:20:07;;;;;;;8.87;6.13;;;1.70;66.10;;;;;;5074605;28;20206;-58
2022/03/09 04:22:32;;;;;;;9.07;5.73;;;1.70;66.10;;;;;;5074709;28;20405;-58
2022/03/09 04:24:58;;;;;;;9.23;5.93;;;1.70;66.10;;;;;;5074518;28;20429;-57
2022/03/09 04:27:23;;;;;;;8.40;6.17;;;1.70;66.10;;;;;;5074247;28;20178;-57
2022/03/09 04:29:49;;;;;;;9.10;6.10;;;1.70;65.80;;;;;;5074486;28;20517;-56
2022/03/09 04:32:14;;;;;;;7.47;6.03;;;1.70;65.70;;;;;;5074478;28;20183;-57
2022/03/09 04:34:40;;;;;;;8.43;6.57;;;1.70;65.70;;;;;;5074313;28;20206;-58
2022/03/09 04:37:06;;;;;;;9.53;6.47;;;1.70;65.70;;;;;;5074136;28;20257;-57
2022/03/09 04:39:31;;;;;;;8.30;5.93;;;1.70;65.70;;;;;;5074309;28;20198;-57
2022/03/09 04:41:57;;;;;;;7.97;5.93;;;1.70;65.90;;;;;;5075616;28;20174;-57
2022/03/09 04:44:22;;;;;;;7.03;5.67;;;1.60;65.90;;;;;;5074326;28;20178;-57
2022/03/09 04:46:48;;;;;;;9.03;6.00;;;1.60;65.80;;;;;;5073830;28;20190;-54
2022/03/09 04:49:13;;;;;;;10.47;8.00;;;1.60;65.70;;;;;;5072841;28;20198;-56
2022/03/09 04:51:39;;;;;;;9.17;7.60;;;1.60;65.60;;;;;;5074216;28;20178;-55
2022/03/09 04:54:04;;;;;;;10.07;8.00;;;1.60;65.80;;;;;;5074070;28;20228;-57
2022/03/09 04:56:30;;;;;;;10.63;7.73;;;1.60;65.90;;;;;;5073680;28;20679;-56
2022/03/09 04:58:55;;;;;;;10.83;7.20;;;1.60;66.00;;;;;;5073913;28;20186;-57
2022/03/09 05:01:21;;;;;;;8.73;6.90;;;1.60;66.70;;;;;;5074084;28;20177;-57
2022/03/09 05:03:46;;;;;;;9.40;7.10;;;1.50;66.50;;;;;;5073989;28;20652;-56
2022/03/09 05:06:13;;;;;;;9.23;7.00;;;1.40;67.00;;;;;;5073483;28;20265;-58
2022/03/09 05:08:38;;;;;;;9.50;6.70;;;1.30;67.80;;;;;;5073780;28;20591;-57
2022/03/09 05:11:04;;;;;;;8.37;6.50;;;1.30;68.20;;;;;;5074026;28;20432;-53
2022/03/09 05:13:30;;;;;;;8.07;6.43;;;1.30;68.10;;;;;;5073711;28;20220;-57
2022/03/09 05:15:55;;;;;;;9.27;6.60;;;1.30;68.00;;;;;;5072784;28;20214;-56
2022/03/09 05:18:21;;;;;;;9.60;7.03;;;1.30;68.40;;;;;;5073606;28;20170;-56
2022/03/09 05:20:47;;;;;;;11.50;8.40;;;1.30;68.00;;;;;;5073420;28;20216;-57
2022/03/09 05:23:13;;;;;;;11.23;8.53;;;1.30;67.90;;;;;;5073598;28;20578;-56
2022/03/09 05:25:38;;;;;;;10.83;8.70;;;1.30;68.00;;;;;;5073174;28;20435;-54
2022/03/09 05:28:04;;;;;;;9.93;7.80;;;1.30;68.30;;;;;;5073331;28;20247;-57
2022/03/09 05:30:29;;;;;;;8.90;6.30;;;1.20;68.40;;;;;;5073413;28;20210;-57
2022/03/09 05:32:55;;;;;;;8.00;6.40;;;1.20;69.00;;;;;;5073431;28;20323;-55
2022/03/09 05:35:21;;;;;;;9.03;6.60;;;1.20;69.10;;;;;;5073168;28;20221;-57
2022/03/09 05:37:47;;;;;;;9.43;6.27;;;1.20;69.20;;;;;;5072860;28;20182;-57
2022/03/09 05:40:14;;;;;;;7.87;6.17;;;1.20;69.20;;;;;;5072977;28;20191;-57
2022/03/09 05:42:40;;;;;;;8.60;5.70;;;1.20;68.90;;;;;;5073075;28;20185;-56
2022/03/09 05:45:06;;;;;;;8.87;6.13;;;1.20;68.80;;;;;;5073190;28;20511;-58
2022/03/09 05:47:31;;;;;;;8.83;6.17;;;1.10;68.20;;;;;;5072702;28;20269;-55
2022/03/09 05:49:57;;;;;;;9.67;6.10;;;1.10;68.70;;;;;;5072890;28;20504;-57
2022/03/09 05:52:23;;;;;;;9.10;6.30;;;1.20;69.10;;;;;;5072947;28;20536;-55
2022/03/09 05:54:48;;;;;;;8.40;6.47;;;1.20;69.20;;;;;;5072844;28;20194;-57
2022/03/09 05:57:18;;;;;;;9.50;6.23;;;1.20;68.90;;;;;;5072475;28;20250;-55
2022/03/09 05:59:43;;;;;;;7.97;6.27;;;1.30;69.00;;;;;;5072635;28;20292;-56
2022/03/09 06:02:09;;;;;;;7.00;5.53;;;1.30;68.60;;;;;;5072774;28;20492;-57
2022/03/09 06:04:34;;;;;;;10.13;6.17;;;1.30;69.00;;;;;;5072542;28;20550;-57
2022/03/09 06:07:04;;;;;;;9.70;6.10;;;1.40;69.10;;;;;;5072072;28;20166;-56
2022/03/09 06:09:29;;;;;;;9.77;5.97;;;1.40;69.20;;;;;;5072613;28;20220;-56
2022/03/09 06:11:55;;;;;;;8.90;5.80;;;1.50;69.00;;;;;;5072604;28;20417;-57
2022/03/09 06:14:21;;;;;;;8.80;6.00;;;1.60;68.80;;;;;;5072469;28;20174;-57
2022/03/09 06:16:47;;;;;;;10.23;5.93;;;1.60;68.40;;;;;;5072035;28;20199;-59
2022/03/09 06:19:13;;;;;;;9.43;6.10;;;1.60;68.50;;;;;;5072352;28;20186;-58
2022/03/09 06:21:39;;;;;;;7.93;5.70;;;1.70;68.50;;;;;;5072459;28;20408;-59
2022/03/09 06:24:05;;;;;;;8.80;6.17;;;1.80;68.40;;;;;;5072429;28;20828;-58
2022/03/09 06:26:31;;;;;;;9.17;7.20;;;1.80;67.70;;;;;;5071456;28;20683;-58
2022/03/09 06:28:56;;;;;;;7.77;6.43;;;1.80;67.30;;;;;;5072096;28;20580;-58
2022/03/09 06:31:22;;;;;;;7.40;5.77;;;1.90;67.20;;;;;;5064295;28;20648;-57
2022/03/09 06:33:47;;;;;;;7.90;5.70;;;1.90;67.00;;;;;;5063994;28;20631;-59
2022/03/09 06:36:13;;;;;;;6.80;5.40;;;2.00;67.00;;;;;;5071734;28;20659;-58
2022/03/09 06:38:38;;;;;;;7.57;5.60;;;2.10;66.90;;;;;;5071980;28;20627;-58
2022/03/09 06:41:04;;;;;;;10.83;7.07;;;2.20;67.00;;;;;;5068127;28;20233;-59
2022/03/09 06:43:29;;;;;;;17.90;13.70;;;2.30;67.10;;;;;;5066863;28;20253;-58
2022/03/09 06:45:55;;;;;;;12.60;9.97;;;2.40;66.80;;;;;;5070889;28;20182;-55
2022/03/09 06:48:20;;;;;;;10.60;7.73;;;2.50;67.20;;;;;;5063774;28;20257;-57
2022/03/09 06:50:46;;;;;;;11.07;7.63;;;2.60;66.30;;;;;;5071773;28;20185;-58
2022/03/09 06:53:12;;;;;;;10.23;7.10;;;2.70;66.00;;;;;;5072012;28;20174;-57
2022/03/09 06:55:37;;;;;;;9.53;6.80;;;2.80;66.20;;;;;;5071451;28;20198;-59
2022/03/09 06:58:04;;;;;;;7.97;6.17;;;2.90;66.00;;;;;;5071897;28;20178;-59
2022/03/09 07:00:30;;;;;;;8.23;5.90;;;3.00;65.60;;;;;;5071914;28;20264;-57
2022/03/09 07:02:56;;;;;;;7.13;5.67;;;3.10;65.40;;;;;;5071898;28;20412;-59
2022/03/09 07:05:23;;;;;;;8.07;6.27;;;3.20;64.80;;;;;;5071849;28;20560;-59
2022/03/09 07:07:48;;;;;;;8.23;5.90;;;3.30;64.30;;;;;;5071421;28;20436;-58
2022/03/09 07:10:14;;;;;;;7.47;5.97;;;3.40;63.90;;;;;;5071628;28;20774;-56
2022/03/09 07:12:41;;;;;;;7.87;6.03;;;3.60;63.70;;;;;;5071833;28;20171;-57
2022/03/09 07:15:08;;;;;;;8.87;5.50;;;3.70;62.70;;;;;;5071614;28;20202;-60
2022/03/09 07:17:34;;;;;;;8.40;5.97;;;3.80;62.80;;;;;;5070067;28;20432;-58
2022/03/09 07:20:00;;;;;;;7.03;5.67;;;3.80;62.70;;;;;;5071519;28;20218;-56
2022/03/09 07:22:25;;;;;;;8.17;5.90;;;3.90;62.90;;;;;;5071621;28;20167;-59
2022/03/09 07:24:51;;;;;;;8.47;6.30;;;4.00;63.00;;;;;;5071446;28;20178;-59
2022/03/09 07:27:16;;;;;;;7.83;5.97;;;4.10;63.00;;;;;;5071294;28;20163;-59
2022/03/09 07:29:42;;;;;;;8.23;6.17;;;4.20;62.80;;;;;;5071520;28;20185;-58
2022/03/09 07:32:08;;;;;;;7.63;6.50;;;4.20;63.10;;;;;;5071449;28;20167;-57
2022/03/09 07:34:34;;;;;;;8.13;6.50;;;4.30;63.70;;;;;;5071246;28;20171;-60
2022/03/09 07:37:00;;;;;;;9.87;6.50;;;4.40;63.30;;;;;;5071043;28;20221;-59
2022/03/09 07:39:27;;;;;;;8.30;6.20;;;4.50;62.70;;;;;;5074211;28;20208;-58
2022/03/09 07:41:55;;;;;;;6.73;5.77;;;4.50;61.00;;;;;;5075497;28;20182;-57
2022/03/09 07:44:21;;;;;;;8.43;6.23;;;4.50;60.60;;;;;;5075430;28;20210;-56
2022/03/09 07:46:48;;;;;;;7.83;6.33;;;4.60;59.80;;;;;;5074939;28;20191;-53
2022/03/09 07:49:13;;;;;;;8.70;6.40;;;4.60;59.90;;;;;;5075244;28;20174;-58
2022/03/09 07:51:39;;;;;;;7.93;6.33;;;4.70;59.70;;;;;;5075251;28;20175;-58
2022/03/09 07:54:06;;;;;;;8.13;6.33;;;4.90;59.50;;;;;;5075181;28;20182;-59
2022/03/09 07:56:32;;;;;;;7.83;6.50;;;5.00;59.70;;;;;;5074807;28;20190;-57
2022/03/09 07:58:57;;;;;;;8.80;7.90;;;5.20;61.90;;;;;;5073723;28;20277;-56
2022/03/09 08:01:23;;;;;;;9.40;8.40;;;5.10;66.10;;;;;;5075112;28;20257;-57
2022/03/09 08:03:49;;;;;;;10.70;8.70;;;5.00;67.60;;;;;;5074993;28;20597;-59
2022/03/09 08:06:15;;;;;;;11.90;8.67;;;4.90;68.70;;;;;;5074502;28;20266;-59
2022/03/09 08:08:40;;;;;;;12.47;9.33;;;4.90;68.60;;;;;;5074935;28;20245;-59
2022/03/09 08:11:06;;;;;;;11.00;8.73;;;5.10;69.30;;;;;;5075019;28;20174;-59
2022/03/09 08:13:31;;;;;;;11.50;9.00;;;5.20;68.80;;;;;;5074976;28;20209;-57
2022/03/09 08:15:57;;;;;;;11.30;8.43;;;5.30;69.30;;;;;;5074457;28;20752;-60
2022/03/09 08:18:22;;;;;;;9.53;8.50;;;5.40;69.60;;;;;;5074707;28;20236;-59
2022/03/09 08:20:48;;;;;;;11.37;8.10;;;5.30;68.70;;;;;;5074590;28;20285;-57
2022/03/09 08:23:13;;;;;;;10.50;8.73;;;5.40;68.60;;;;;;5074685;28;20612;-59
2022/03/09 08:25:40;;;;;;;9.23;8.03;;;5.50;68.00;;;;;;5074426;28;20562;-60
2022/03/09 08:28:05;;;;;;;8.70;7.63;;;5.50;67.90;;;;;;5074522;28;20166;-58
2022/03/09 08:30:31;;;;;;;9.83;7.83;;;5.60;67.30;;;;;;5074376;28;20171;-59
2022/03/09 08:32:56;;;;;;;11.67;7.50;;;5.80;66.80;;;;;;5074420;28;20670;-60
2022/03/09 08:35:22;;;;;;;9.53;7.57;;;6.00;65.90;;;;;;5074358;28;20690;-59
2022/03/09 08:37:48;;;;;;;9.57;7.70;;;6.10;65.60;;;;;;5074031;28;20174;-58
2022/03/09 08:40:13;;;;;;;10.50;7.30;;;6.10;64.30;;;;;;5074207;28;20658;-60
2022/03/09 08:42:39;;;;;;;11.80;7.60;;;6.10;62.20;;;;;;5074389;28;20175;-56
2022/03/09 08:45:05;;;;;;;9.10;7.87;;;6.30;60.90;;;;;;5074243;28;20630;-58
2022/03/09 08:47:31;;;;;;;8.13;7.30;;;6.40;60.70;;;;;;5073968;28;20540;-56
2022/03/09 08:49:57;;;;;;;10.90;8.03;;;6.70;61.30;;;;;;5073231;28;20175;-55
2022/03/09 08:52:23;;;;;;;8.97;7.70;;;6.90;60.20;;;;;;5074148;28;20551;-56
2022/03/09 08:54:53;;;;;;;10.40;8.60;;;7.00;60.10;;;;;;5074098;28;20198;-56
2022/03/09 08:57:19;;;;;;;9.63;7.43;;;7.10;59.50;;;;;;5073751;28;20236;-56
2022/03/09 08:59:45;;;;;;;9.80;7.50;;;7.30;59.40;;;;;;5074019;28;20197;-59
2022/03/09 09:02:11;;;;;;;18.17;8.20;;;7.70;58.00;;;;;;5074009;28;20539;-59
2022/03/09 09:04:36;;;;;;;9.20;7.70;;;8.10;56.50;;;;;;5073816;28;20170;-59
2022/03/09 09:07:02;;;;;;;13.20;7.60;;;8.40;55.30;;;;;;5073589;28;20170;-58
2022/03/09 09:09:28;;;;;;;8.40;7.03;;;8.80;54.60;;;;;;5073890;28;20171;-59
2022/03/09 09:11:54;;;;;;;9.50;7.30;;;9.20;53.50;;;;;;5073858;28;20677;-58
2022/03/09 09:14:20;;;;;;;10.63;7.80;;;9.50;51.50;;;;;;5073673;28;20171;-60
2022/03/09 09:16:45;;;;;;;10.87;7.77;;;10.00;49.60;;;;;;5073406;28;20222;-58
2022/03/09 09:19:11;;;;;;;9.20;7.37;;;10.70;48.10;;;;;;5073495;28;20186;-60
2022/03/09 09:21:37;;;;;;;8.50;7.23;;;11.30;49.00;;;;;;5073601;28;20628;-60
2022/03/09 09:24:03;;;;;;;10.83;7.80;;;11.90;47.20;;;;;;5073646;28;20540;-60
2022/03/09 09:26:29;;;;;;;8.27;7.37;;;12.50;45.20;;;;;;5073192;28;20686;-59
2022/03/09 09:28:54;;;;;;;7.90;6.73;;;13.40;44.90;;;;;;5073360;28;20175;-60
2022/03/09 09:31:20;;;;;;;8.33;7.43;;;14.20;43.20;;;;;;5074398;28;20256;-60
2022/03/09 09:33:45;;;;;;;8.70;6.90;;;15.10;41.00;;;;;;5073366;28;20179;-60
2022/03/09 09:36:11;;;;;;;8.93;7.80;;;16.00;39.30;;;;;;5072854;28;20198;-60
2022/03/09 09:38:37;;;;;;;9.37;7.47;;;16.70;37.60;;;;;;5073479;28;20631;-60
2022/03/09 09:41:02;;;;;;;8.13;6.83;;;17.60;35.80;;;;;;5073470;28;20295;-59
2022/03/09 09:43:28;;;;;;;7.97;6.87;;;18.90;35.00;;;;;;5073388;28;20167;-59
2022/03/09 09:45:56;;;;;;;8.35;7.28;;;20.00;33.10;;;;;;5072824;28;20651;-59
2022/03/09 09:48:22;;;;;;;7.80;6.57;;;21.00;31.90;;;;;;5073000;28;20163;-60
2022/03/09 09:50:48;;;;;;;7.65;6.50;;;22.60;30.30;;;;;;5072945;28;20563;-60
2022/03/09 09:53:15;;;;;;;8.18;6.60;;;24.30;29.10;;;;;;5073168;28;20611;-59
2022/03/09 09:55:42;;;;;;;7.45;6.63;;;26.70;27.00;;;;;;5072563;28;20278;-58
2022/03/09 09:58:08;;;;;;;7.88;7.07;;;27.70;25.20;;;;;;5072801;28;20171;-60
2022/03/09 10:00:34;;;;;;;6.93;6.22;;;29.00;23.40;;;;;;5072757;28;20659;-59
2022/03/09 10:03:00;;;;;;;6.65;6.05;;;30.70;23.10;;;;;;5072695;28;20171;-60
2022/03/09 10:05:25;;;;;;;6.78;5.68;;;32.10;22.20;;;;;;5072470;28;20183;-59
2022/03/09 10:08:03;;;;;;;7.00;5.70;;;33.30;21.70;;;;;;5072401;28;20215;-61
2022/03/09 10:10:29;;;;;;;5.47;4.97;;;35.30;18.60;;;;;;5072682;28;20587;-60
2022/03/09 10:13:14;;;;;;;6.53;5.40;;;36.80;17.80;;;;;;5072499;28;20174;-60
2022/03/09 10:15:41;;;;;;;6.03;5.50;;;38.10;16.80;;;;;;5071942;28;20285;-61
2022/03/09 10:18:21;;;;;;;5.35;4.85;;;38.70;16.30;;;;;;5072465;28;20608;-58
2022/03/09 10:20:49;;;;;;;4.95;4.45;;;39.60;15.70;;;;;;5072341;28;20701;-61
2022/03/09 10:23:16;;;;;;;5.95;4.43;;;40.50;15.20;;;;;;5072500;28;20174;-55
2022/03/09 10:25:43;;;;;;;6.60;4.60;;;41.60;14.20;;;;;;5072051;28;20268;-59
2022/03/09 10:28:11;;;;;;;4.97;4.55;;;42.90;14.80;;;;;;5072293;28;20169;-59
2022/03/09 10:30:39;;;;;;;4.28;3.88;;;44.40;13.50;;;;;;5072293;28;20181;-59
2022/03/09 10:33:10;;;;;;;4.68;4.30;;;45.50;13.10;;;;;;5072294;28;20265;-59
2022/03/09 10:35:40;;;;;;;4.82;4.43;;;46.10;11.30;;;;;;5071880;28;20194;-59
2022/03/09 10:38:14;;;;;;;4.80;4.40;;;45.90;10.70;;;;;;5072292;28;20249;-59
2022/03/09 10:40:49;;;;;;;4.80;4.40;;;45.10;10.90;;;;;;5186929;22;20643;-55
2022/03/09 10:43:18;;;;;;;4.72;4.20;;;44.50;11.60;;;;;;5057234;28;20266;-57
2022/03/09 10:46:05;;;;;;;4.60;4.20;;;44.00;11.60;;;;;;5059446;28;20654;-56
2022/03/09 10:49:02;;;;;;;4.93;4.53;;;43.60;10.70;;;;;;5063014;28;20184;-57
2022/03/09 10:51:40;;;;;;;4.50;4.10;;;42.90;11.50;;;;;;5063777;28;20209;-57
2022/03/09 10:54:09;;;;;;;4.80;4.40;;;41.50;11.80;;;;;;5067999;28;20219;-53
2022/03/09 10:56:35;;;;;;;4.50;4.10;;;40.80;12.00;;;;;;5071456;28;20508;-58
2022/03/09 10:59:09;;;;;;;3.90;3.60;;;41.00;11.90;;;;;;5071069;28;20246;-58
2022/03/09 11:01:35;;;;;;;4.22;3.90;;;41.00;12.10;;;;;;5055690;28;20193;-55
2022/03/09 11:04:13;;;;;;;3.88;3.58;;;40.50;12.90;;;;;;5071884;28;20170;-56
2022/03/09 11:06:46;;;;;;;3.78;3.40;;;40.30;12.20;;;;;;5087153;28;20170;-56
2022/03/09 11:09:13;;;;;;;3.80;3.50;;;40.60;11.30;;;;;;5071724;28;20670;-55
2022/03/09 11:11:39;;;;;;;4.03;3.63;;;40.90;12.30;;;;;;5071653;28;20201;-58
2022/03/09 11:14:06;;;;;;;3.40;3.10;;;40.70;12.60;;;;;;5071251;28;20173;-56
2022/03/09 11:16:31;;;;;;;3.10;2.85;;;41.50;11.80;;;;;;5061652;28;20174;-59
2022/03/09 11:18:57;;;;;;;3.50;3.20;;;41.00;11.90;;;;;;5063308;28;20184;-57
2022/03/09 11:21:23;;;;;;;3.30;3.00;;;39.70;12.00;;;;;;5071587;28;20188;-55
2022/03/09 11:23:50;;;;;;;3.17;2.88;;;39.10;13.30;;;;;;5071575;28;20170;-55
2022/03/09 11:26:38;;;;;;;3.50;3.20;;;37.40;13.00;;;;;;5071409;28;20170;-58
2022/03/09 11:29:06;;;;;;;3.25;2.95;;;36.60;14.40;;;;;;5071428;28;20174;-54
2022/03/09 11:31:50;;;;;;;3.30;3.00;;;36.20;14.10;;;;;;5071556;28;20193;-53
2022/03/09 11:34:35;;;;;;;3.22;2.95;;;35.60;14.80;;;;;;5071628;28;20639;-55
2022/03/09 11:37:13;;;;;;;2.80;2.60;;;34.30;15.60;;;;;;5071117;28;20243;-58
2022/03/09 11:39:40;;;;;;;2.33;2.13;;;33.70;14.60;;;;;;5071585;28;20643;-57
2022/03/09 11:42:21;;;;;;;2.80;2.60;;;35.20;14.50;;;;;;5071227;28;20216;-58
2022/03/09 11:45:27;;;;;;;2.30;2.10;;;34.40;15.30;;;;;;5071291;28;20192;-53
2022/03/09 11:47:58;;;;;;;2.53;2.33;;;33.20;15.90;;;;;;5049135;28;20182;-54
2022/03/09 11:50:25;;;;;;;2.22;2.03;;;33.70;16.30;;;;;;5063965;28;20203;-54
2022/03/09 11:53:00;;;;;;;2.22;2.10;;;34.00;15.70;;;;;;5062999;28;20698;-53
2022/03/09 11:55:26;;;;;;;2.20;1.98;;;33.30;16.80;;;;;;5071407;28;20261;-51
2022/03/09 11:57:51;;;;;;;2.28;1.95;;;32.30;17.50;;;;;;5071106;28;20232;-55
2022/03/09 12:00:21;;;;;;;1.95;1.85;;;32.30;17.80;;;;;;5071147;28;20194;-57
2022/03/09 12:02:48;;;;;;;1.77;1.67;;;32.20;17.40;;;;;;5071411;28;20524;-55
2022/03/09 12:05:31;;;;;;;1.20;1.10;;;31.90;17.40;;;;;;5071242;28;20179;-58
2022/03/09 12:08:14;;;;;;;1.65;1.55;;;31.20;18.00;;;;;;5071499;28;20515;-56
2022/03/09 12:10:39;;;;;;;1.08;0.90;;;30.90;18.50;;;;;;5071079;28;20210;-58
2022/03/09 12:13:16;;;;;;;1.30;1.20;;;30.80;18.70;;;;;;5071193;28;20218;-60
2022/03/09 12:16:02;;;;;;;1.02;1.00;;;30.90;19.00;;;;;;5070924;28;20508;-58
2022/03/09 12:18:38;;;;;;;1.58;1.48;;;30.20;19.70;;;;;;5071195;28;20171;-60
2022/03/09 12:21:05;;;;;;;2.30;2.10;;;29.90;19.30;;;;;;5071127;28;20186;-59
2022/03/09 12:23:31;;;;;;;2.13;1.90;;;30.90;18.80;;;;;;5071174;28;20199;-54
2022/03/09 12:25:58;;;;;;;2.20;2.10;;;31.10;18.90;;;;;;5072555;28;20679;-56
2022/03/09 12:28:23;;;;;;;1.60;1.50;;;31.60;17.70;;;;;;5074329;28;20606;-56
2022/03/09 12:30:53;;;;;;;2.20;2.00;;;31.50;18.90;;;;;;5074301;28;20281;-56
2022/03/09 12:33:33;;;;;;;1.80;1.70;;;30.10;18.30;;;;;;5074269;28;20171;-54
2022/03/09 12:36:05;;;;;;;1.92;1.80;;;30.00;18.80;;;;;;5074076;28;20231;-53
2022/03/09 12:38:35;;;;;;;2.00;1.90;;;29.70;19.90;;;;;;5074199;28;20656;-56
2022/03/09 12:41:01;;;;;;;2.47;2.28;;;29.70;20.30;;;;;;5073901;28;20210;-53
2022/03/09 12:43:26;;;;;;;2.50;2.30;;;29.10;20.00;;;;;;5074138;28;20171;-56
2022/03/09 12:45:54;;;;;;;2.50;2.30;;;28.50;19.20;;;;;;5073780;28;20166;-58
2022/03/09 12:48:20;;;;;;;3.70;3.40;;;29.10;19.20;;;;;;5074177;28;20183;-58
2022/03/09 12:50:46;;;;;;;3.47;3.20;;;29.10;19.20;;;;;;5074005;28;20575;-57
2022/03/09 12:53:12;;;;;;;3.58;3.28;;;28.80;19.80;;;;;;5073931;28;20163;-53
2022/03/09 12:55:38;;;;;;;3.90;3.60;;;28.60;20.00;;;;;;5072407;28;20582;-54